Time;durP1;ratioP1;P1;durP2;ratioP2;P2;SDS_P1;SDS_P2;PMS_P1;PMS_P2;Temp;Humidity;BMP_temperature;BMP_pressure;BME280_temperature;BME280_humidity;BME280_pressure;Samples;Min_cycle;Max_cycle;Signal;HPM_P1;HPM_P2
2023/10/28 00:02:17;;;;;;;10.38;5.28;;;;;;;8.29;100.00;95469.47;5079865;28;20035;-66
2023/10/28 00:04:42;;;;;;;4.40;3.78;;;;;;;8.27;100.00;95460.88;5081554;28;20035;-66
2023/10/28 00:07:08;;;;;;;6.35;4.85;;;;;;;8.32;100.00;95463.09;5083440;28;20487;-66
2023/10/28 00:09:34;;;;;;;5.75;4.68;;;;;;;8.37;100.00;95452.22;5086747;28;20044;-63
2023/10/28 00:11:59;;;;;;;11.38;8.00;;;;;;;8.34;100.00;95434.13;5079359;28;20032;-63
2023/10/28 00:14:25;;;;;;;9.95;5.43;;;;;;;8.36;100.00;95434.81;5082669;28;20028;-63
2023/10/28 00:16:50;;;;;;;8.13;4.00;;;;;;;8.33;100.00;95451.66;5084801;28;20023;-63
2023/10/28 00:19:16;;;;;;;3.80;3.50;;;;;;;8.31;100.00;95438.69;5080026;28;20028;-64
2023/10/28 00:21:42;;;;;;;3.80;3.47;;;;;;;8.35;100.00;95435.78;5080543;28;20052;-64
2023/10/28 00:24:08;;;;;;;4.15;3.05;;;;;;;8.35;100.00;95441.03;5083468;28;20036;-64
2023/10/28 00:26:34;;;;;;;3.30;3.00;;;;;;;8.39;100.00;95434.56;5083213;28;20016;-64
2023/10/28 00:28:59;;;;;;;6.70;3.58;;;;;;;8.39;100.00;95439.81;5087152;28;20472;-64
2023/10/28 00:31:25;;;;;;;8.98;3.65;;;;;;;8.42;100.00;95440.38;5082613;28;20025;-64
2023/10/28 00:33:51;;;;;;;3.88;3.50;;;;;;;8.42;100.00;95437.75;5080705;28;20017;-64
2023/10/28 00:36:17;;;;;;;6.43;3.95;;;;;;;8.42;100.00;95453.50;5088205;28;20032;-64
2023/10/28 00:38:42;;;;;;;4.18;3.60;;;;;;;8.43;100.00;95455.16;5086605;28;20039;-64
2023/10/28 00:41:08;;;;;;;3.70;3.22;;;;;;;8.43;100.00;95441.19;5083752;28;20107;-64
2023/10/28 00:43:34;;;;;;;7.47;3.30;;;;;;;8.45;100.00;95437.47;5089412;28;20099;-64
2023/10/28 00:46:02;;;;;;;6.15;3.80;;;;;;;8.49;100.00;95424.09;5085656;28;20099;-64
2023/10/28 00:48:28;;;;;;;4.15;3.75;;;;;;;8.48;100.00;95432.91;5087944;28;20023;-64
2023/10/28 00:50:54;;;;;;;5.57;2.38;;;;;;;8.45;100.00;95423.50;5088604;28;20028;-64
2023/10/28 00:53:23;;;;;;;10.90;2.58;;;;;;;8.45;100.00;95413.88;5087943;28;20038;-64
2023/10/28 00:55:51;;;;;;;2.85;2.28;;;;;;;8.46;100.00;95412.06;5086347;28;20016;-64
2023/10/28 00:58:20;;;;;;;3.53;2.20;;;;;;;8.43;100.00;95407.94;5088951;28;20020;-65
2023/10/28 01:00:45;;;;;;;7.20;5.80;;;;;;;8.41;100.00;95409.84;5085013;28;20024;-64
2023/10/28 01:03:10;;;;;;;4.38;2.90;;;;;;;8.40;100.00;95420.47;5082131;28;20092;-65
2023/10/28 01:05:36;;;;;;;3.97;2.75;;;;;;;8.43;100.00;95425.44;5084058;28;20028;-64
2023/10/28 01:08:02;;;;;;;5.30;2.33;;;;;;;8.43;100.00;95430.69;5089070;28;20039;-64
2023/10/28 01:10:33;;;;;;;2.97;2.13;;;;;;;8.45;100.00;95428.75;5080804;28;20028;-64
2023/10/28 01:12:58;;;;;;;3.58;1.70;;;;;;;8.48;100.00;95425.88;5086296;28;20043;-64
2023/10/28 01:15:24;;;;;;;3.08;2.10;;;;;;;8.49;100.00;95418.84;5084046;28;20496;-64
2023/10/28 01:17:50;;;;;;;5.25;2.17;;;;;;;8.50;100.00;95417.91;5084592;28;20427;-64
2023/10/28 01:20:16;;;;;;;2.90;2.38;;;;;;;8.52;100.00;95415.97;5090662;28;20174;-64
2023/10/28 01:22:42;;;;;;;2.80;1.98;;;;;;;8.50;100.00;95410.84;5085108;28;20012;-64
2023/10/28 01:25:07;;;;;;;2.50;2.30;;;;;;;8.52;100.00;95398.44;5088827;28;20496;-64
2023/10/28 01:27:33;;;;;;;6.78;2.10;;;;;;;8.52;100.00;95392.34;5092217;28;20679;-64
2023/10/28 01:29:59;;;;;;;5.20;2.05;;;;;;;8.53;100.00;95388.75;5090573;28;22554;-64
2023/10/28 01:32:24;;;;;;;3.80;2.90;;;;;;;8.51;100.00;95382.81;5085029;28;20024;-64
2023/10/28 01:34:53;;;;;;;16.40;14.65;;;;;;;8.54;100.00;95379.94;5073474;28;20021;-64
2023/10/28 01:37:21;;;;;;;11.18;9.75;;;;;;;8.52;100.00;95368.75;5093922;28;20047;-64
2023/10/28 01:39:48;;;;;;;7.93;7.22;;;;;;;8.52;100.00;95372.22;5089112;28;20443;-64
2023/10/28 01:42:14;;;;;;;5.20;4.35;;;;;;;8.49;100.00;95366.38;5087711;28;20514;-64
2023/10/28 01:44:40;;;;;;;7.80;6.15;;;;;;;8.43;100.00;95360.69;5085291;28;20667;-64
2023/10/28 01:47:08;;;;;;;4.25;2.90;;;;;;;8.42;100.00;95359.03;5090074;28;20032;-64
2023/10/28 01:49:35;;;;;;;2.40;2.20;;;;;;;8.42;100.00;95355.59;5086940;28;20028;-64
2023/10/28 01:52:00;;;;;;;4.45;4.07;;;;;;;8.45;100.00;95352.69;5088148;28;20023;-64
2023/10/28 01:54:25;;;;;;;3.30;2.42;;;;;;;8.48;100.00;95360.28;5080455;28;20028;-64
2023/10/28 01:56:51;;;;;;;5.10;1.77;;;;;;;8.44;100.00;95349.25;5087524;28;20039;-64
2023/10/28 01:59:16;;;;;;;2.45;1.83;;;;;;;8.48;100.00;95344.53;5091812;28;20084;-64
2023/10/28 02:01:42;;;;;;;6.55;2.35;;;;;;;8.61;100.00;95333.78;5082859;28;20016;-64
2023/10/28 02:04:08;;;;;;;4.10;1.95;;;;;;;8.69;100.00;95325.22;5085559;28;20061;-64
2023/10/28 02:06:33;;;;;;;6.82;2.25;;;;;;;8.40;100.00;95340.00;5085624;28;20031;-64
2023/10/28 02:08:59;;;;;;;3.95;1.88;;;;;;;8.40;100.00;95360.97;5087860;28;20124;-64
2023/10/28 02:11:24;;;;;;;2.25;1.80;;;;;;;8.38;100.00;95367.31;5088588;28;20020;-64
2023/10/28 02:13:49;;;;;;;3.08;1.83;;;;;;;8.37;100.00;95365.66;5083816;28;20101;-64
2023/10/28 02:16:15;;;;;;;2.00;1.80;;;;;;;8.37;100.00;95358.59;5080177;28;20381;-64
2023/10/28 02:18:41;;;;;;;2.47;1.63;;;;;;;8.35;100.00;95365.78;5087094;28;20506;-64
2023/10/28 02:21:06;;;;;;;3.67;2.00;;;;;;;8.35;100.00;95372.84;5092173;28;20129;-64
2023/10/28 02:23:32;;;;;;;7.65;7.03;;;;;;;8.34;100.00;95376.44;5084265;28;20013;-64
2023/10/28 02:25:58;;;;;;;5.53;2.13;;;;;;;8.43;100.00;95376.44;5084173;28;20026;-64
2023/10/28 02:28:23;;;;;;;2.40;1.70;;;;;;;8.35;100.00;95378.91;5083970;28;20488;-64
2023/10/28 02:30:49;;;;;;;2.88;1.70;;;;;;;8.37;100.00;95374.34;5087658;28;20070;-64
2023/10/28 02:33:14;;;;;;;2.92;2.13;;;;;;;8.33;100.00;95375.59;5081415;28;20505;-64
2023/10/28 02:35:40;;;;;;;2.58;2.20;;;;;;;8.31;100.00;95365.25;5085809;28;20095;-64
2023/10/28 02:38:05;;;;;;;3.42;3.13;;;;;;;8.32;100.00;95356.41;5090306;28;20023;-64
2023/10/28 02:40:31;;;;;;;4.10;3.63;;;;;;;8.32;100.00;95348.53;5090345;28;20054;-64
2023/10/28 02:42:56;;;;;;;3.83;3.53;;;;;;;8.28;100.00;95339.25;5091855;28;20020;-64
2023/10/28 02:45:22;;;;;;;5.43;3.20;;;;;;;8.20;100.00;95330.44;5087307;28;20035;-64
2023/10/28 02:47:49;;;;;;;4.57;2.55;;;;;;;8.13;100.00;95340.66;5084744;28;20544;-64
2023/10/28 02:50:16;;;;;;;3.13;2.40;;;;;;;8.09;100.00;95349.75;5085888;28;20024;-64
2023/10/28 02:52:42;;;;;;;3.25;2.45;;;;;;;8.07;100.00;95352.50;5081433;28;20031;-64
2023/10/28 02:55:08;;;;;;;2.35;2.25;;;;;;;8.06;100.00;95353.47;5079845;28;20052;-64
2023/10/28 02:57:33;;;;;;;3.85;2.30;;;;;;;8.02;100.00;95354.69;5080309;28;20150;-64
2023/10/28 02:59:58;;;;;;;4.70;2.38;;;;;;;7.98;100.00;95346.25;5076425;28;20081;-64
2023/10/28 03:02:24;;;;;;;3.53;2.30;;;;;;;7.88;100.00;95345.41;5075132;28;20388;-63
2023/10/28 03:04:49;;;;;;;2.50;2.25;;;;;;;7.82;100.00;95351.19;5076292;28;20031;-64
2023/10/28 03:07:15;;;;;;;3.03;2.00;;;;;;;7.84;100.00;95341.38;5076402;28;20047;-64
2023/10/28 03:09:40;;;;;;;3.55;2.10;;;;;;;7.78;100.00;95332.28;5076783;28;20047;-64
2023/10/28 03:12:06;;;;;;;2.88;2.17;;;;;;;7.71;100.00;95333.75;5076628;28;20021;-64
2023/10/28 03:14:31;;;;;;;2.75;2.63;;;;;;;7.69;100.00;95340.94;5077795;28;20020;-64
2023/10/28 03:16:57;;;;;;;7.40;3.00;;;;;;;7.70;100.00;95346.06;5075886;28;20029;-64
2023/10/28 03:19:22;;;;;;;4.43;2.83;;;;;;;7.68;100.00;95334.88;5087101;28;20081;-64
2023/10/28 03:21:48;;;;;;;4.97;3.30;;;;;;;7.70;100.00;95350.44;5085896;28;20477;-64
2023/10/28 03:24:13;;;;;;;4.80;2.88;;;;;;;7.68;100.00;95347.97;5082464;28;20054;-64
2023/10/28 03:26:38;;;;;;;4.90;2.70;;;;;;;7.72;100.00;95341.50;5081189;28;20384;-64
2023/10/28 03:29:04;;;;;;;4.80;2.45;;;;;;;7.78;100.00;95336.69;5076649;28;20024;-64
2023/10/28 03:31:30;;;;;;;5.43;2.20;;;;;;;7.84;100.00;95326.50;5085896;28;20045;-64
2023/10/28 03:33:55;;;;;;;3.13;2.20;;;;;;;7.87;100.00;95310.50;5088987;28;20027;-64
2023/10/28 03:36:21;;;;;;;6.78;2.40;;;;;;;7.81;100.00;95300.56;5078724;28;20047;-64
2023/10/28 03:38:47;;;;;;;6.13;2.50;;;;;;;7.88;100.00;95308.72;5088075;28;20039;-64
2023/10/28 03:41:12;;;;;;;3.25;2.60;;;;;;;7.93;100.00;95301.28;5086939;28;20016;-64
2023/10/28 03:43:38;;;;;;;2.80;2.53;;;;;;;7.85;100.00;95301.94;5089985;28;20381;-64
2023/10/28 03:46:04;;;;;;;5.75;4.03;;;;;;;7.86;100.00;95308.03;5088977;28;20024;-64
2023/10/28 03:48:30;;;;;;;5.22;4.53;;;;;;;7.87;100.00;95299.22;5079066;28;20027;-64
2023/10/28 03:51:01;;;;;;;3.58;3.00;;;;;;;7.88;100.00;95301.69;5094034;28;20019;-64
2023/10/28 03:53:27;;;;;;;5.13;2.90;;;;;;;7.91;100.00;95303.22;5086452;28;20536;-64
2023/10/28 03:55:52;;;;;;;2.80;2.60;;;;;;;7.93;100.00;95293.41;5089487;28;20016;-64
2023/10/28 03:58:18;;;;;;;4.07;2.90;;;;;;;7.92;100.00;95293.53;5082604;28;20019;-64
2023/10/28 04:00:43;;;;;;;3.13;2.58;;;;;;;7.86;100.00;95293.13;5060177;28;20043;-64
2023/10/28 04:03:09;;;;;;;6.20;3.20;;;;;;;7.83;100.00;95303.03;5086656;28;20107;-64
2023/10/28 04:05:34;;;;;;;4.13;2.88;;;;;;;7.81;100.00;95297.09;5082379;28;20016;-64
2023/10/28 04:07:59;;;;;;;4.25;3.90;;;;;;;7.80;100.00;95308.53;5078133;28;20020;-64
2023/10/28 04:10:25;;;;;;;4.00;3.40;;;;;;;7.82;100.00;95304.00;5088314;28;20492;-64
2023/10/28 04:12:51;;;;;;;3.55;2.90;;;;;;;7.80;100.00;95298.06;5083874;28;20032;-64
2023/10/28 04:15:18;;;;;;;5.05;3.13;;;;;;;7.82;100.00;95290.91;5084098;28;20016;-65
2023/10/28 04:17:43;;;;;;;3.65;3.13;;;;;;;7.86;100.00;95281.81;5088775;28;20051;-64
2023/10/28 04:20:10;;;;;;;5.30;4.03;;;;;;;7.87;100.00;95279.06;5092124;28;20032;-64
2023/10/28 04:22:38;;;;;;;6.82;3.55;;;;;;;7.82;100.00;95264.69;5091073;28;20024;-64
2023/10/28 04:25:05;;;;;;;3.30;3.00;;;;;;;7.84;100.00;95268.00;5090819;28;20504;-64
2023/10/28 04:27:31;;;;;;;6.05;3.00;;;;;;;7.87;100.00;95259.91;5088462;28;20527;-64
2023/10/28 04:29:57;;;;;;;4.00;3.60;;;;;;;7.88;100.00;95259.75;5096270;28;20032;-64
2023/10/28 04:32:23;;;;;;;5.63;3.83;;;;;;;7.84;100.00;95271.47;5085340;28;20039;-64
2023/10/28 04:34:50;;;;;;;4.30;3.20;;;;;;;7.86;100.00;95279.19;5096784;28;20075;-64
2023/10/28 04:37:15;;;;;;;5.97;2.60;;;;;;;7.85;100.00;95280.97;5084850;28;20028;-64
2023/10/28 04:39:41;;;;;;;6.25;2.40;;;;;;;7.85;100.00;95277.53;5089233;28;20058;-64
2023/10/28 04:42:07;;;;;;;4.72;3.28;;;;;;;7.87;100.00;95283.47;5093957;28;20780;-64
2023/10/28 04:44:33;;;;;;;5.13;3.72;;;;;;;7.84;100.00;95276.69;5090004;28;20509;-64
2023/10/28 04:46:58;;;;;;;3.65;2.72;;;;;;;7.85;100.00;95288.03;5086488;28;20080;-64
2023/10/28 04:49:24;;;;;;;8.63;3.50;;;;;;;7.83;100.00;95284.69;5091211;28;20038;-64
2023/10/28 04:51:49;;;;;;;3.20;3.00;;;;;;;7.82;100.00;95285.66;5089346;28;20031;-64
2023/10/28 04:54:14;;;;;;;5.45;3.00;;;;;;;7.84;100.00;95281.94;5092761;28;20026;-64
2023/10/28 04:56:40;;;;;;;3.25;2.95;;;;;;;7.87;100.00;95286.09;5092561;28;20484;-64
2023/10/28 04:59:07;;;;;;;6.97;3.35;;;;;;;7.86;100.00;95280.00;5089425;28;20024;-64
2023/10/28 05:01:32;;;;;;;5.78;3.05;;;;;;;7.88;100.00;95280.72;5088630;28;20013;-64
2023/10/28 05:03:58;;;;;;;4.13;2.88;;;;;;;7.89;100.00;95269.25;5087806;28;20070;-64
2023/10/28 05:06:23;;;;;;;5.25;3.00;;;;;;;7.91;100.00;95273.53;5080670;28;20028;-64
2023/10/28 05:08:49;;;;;;;3.38;3.08;;;;;;;7.94;100.00;95268.84;5086170;28;20109;-65
2023/10/28 05:11:16;;;;;;;4.00;3.17;;;;;;;7.93;100.00;95259.34;5089627;28;20103;-64
2023/10/28 05:13:42;;;;;;;4.60;4.20;;;;;;;7.93;100.00;95263.75;5087283;28;20032;-64
2023/10/28 05:16:09;;;;;;;4.88;3.70;;;;;;;7.94;100.00;95268.84;5088175;28;20118;-64
2023/10/28 05:18:35;;;;;;;4.55;3.42;;;;;;;7.95;100.00;95269.66;5083470;28;20016;-64
2023/10/28 05:21:01;;;;;;;4.65;2.67;;;;;;;7.92;100.00;95260.31;5090744;28;20049;-64
2023/10/28 05:23:26;;;;;;;4.10;2.95;;;;;;;7.90;100.00;95259.63;5090897;28;20036;-64
2023/10/28 05:25:53;;;;;;;3.55;2.97;;;;;;;7.90;100.00;95264.84;5085499;28;20097;-64
2023/10/28 05:28:19;;;;;;;2.60;2.40;;;;;;;7.89;100.00;95253.53;5089168;28;20032;-64
2023/10/28 05:30:45;;;;;;;4.05;2.58;;;;;;;7.90;100.00;95257.00;5093302;28;20027;-64
2023/10/28 05:33:11;;;;;;;6.45;3.85;;;;;;;7.88;100.00;95249.25;5091674;28;20063;-64
2023/10/28 05:35:37;;;;;;;6.25;4.15;;;;;;;7.88;100.00;95241.38;5093154;28;20119;-64
2023/10/28 05:38:02;;;;;;;8.55;3.80;;;;;;;7.90;100.00;95230.78;5093555;28;20038;-64
2023/10/28 05:40:28;;;;;;;7.13;3.58;;;;;;;7.83;100.00;95230.50;5093551;28;20051;-64
2023/10/28 05:42:54;;;;;;;5.68;3.20;;;;;;;7.77;100.00;95232.81;5086197;28;20035;-64
2023/10/28 05:45:20;;;;;;;5.13;3.30;;;;;;;7.69;100.00;95236.97;5082177;28;20024;-64
2023/10/28 05:47:46;;;;;;;5.85;4.60;;;;;;;7.67;100.00;95246.75;5086646;28;20012;-64
2023/10/28 05:50:12;;;;;;;6.25;4.28;;;;;;;7.59;100.00;95255.28;5089380;28;20501;-64
2023/10/28 05:52:40;;;;;;;7.20;4.95;;;;;;;7.57;100.00;95258.97;5087889;28;20099;-64
2023/10/28 05:55:12;;;;;;;5.93;5.32;;;;;;;7.58;100.00;95251.00;5091210;28;20024;-65
2023/10/28 05:57:38;;;;;;;5.25;4.75;;;;;;;7.53;100.00;95247.13;5090480;28;20024;-65
2023/10/28 06:00:09;;;;;;;6.20;5.00;;;;;;;7.54;100.00;95236.53;5082037;28;20055;-64
2023/10/28 06:02:38;;;;;;;5.20;4.32;;;;;;;7.43;100.00;95224.38;5088177;28;20112;-64
2023/10/28 06:05:04;;;;;;;9.13;7.15;;;;;;;7.36;100.00;95217.97;5085819;28;20036;-64
2023/10/28 06:07:30;;;;;;;8.18;6.10;;;;;;;7.34;100.00;95214.66;5078657;28;20107;-64
2023/10/28 06:09:56;;;;;;;19.27;12.77;;;;;;;7.34;100.00;95209.44;5089695;28;20119;-64
2023/10/28 06:12:21;;;;;;;8.00;4.90;;;;;;;7.37;100.00;95211.78;5082160;28;20016;-64
2023/10/28 06:14:46;;;;;;;5.57;2.78;;;;;;;7.32;100.00;95211.38;5080830;28;20023;-64
2023/10/28 06:17:13;;;;;;;2.75;2.55;;;;;;;7.21;100.00;95207.06;5094792;28;20460;-64
2023/10/28 06:19:40;;;;;;;6.43;4.35;;;;;;;7.15;100.00;95218.88;5087969;28;20035;-64
2023/10/28 06:22:06;;;;;;;10.85;9.43;;;;;;;7.17;100.00;95235.28;5089887;28;20040;-64
2023/10/28 06:24:32;;;;;;;13.40;9.57;;;;;;;7.20;100.00;95252.53;5087435;28;20043;-64
2023/10/28 06:26:58;;;;;;;11.05;8.45;;;;;;;7.20;100.00;95255.16;5088426;28;20138;-63
2023/10/28 06:29:24;;;;;;;4.20;3.78;;;;;;;7.12;100.00;95258.41;5091245;28;20535;-64
2023/10/28 06:31:50;;;;;;;4.32;3.85;;;;;;;7.07;100.00;95258.00;5082498;28;20170;-64
2023/10/28 06:34:16;;;;;;;4.60;3.50;;;;;;;7.07;100.00;95244.91;5087208;28;20050;-64
2023/10/28 06:36:41;;;;;;;4.55;3.50;;;;;;;7.09;100.00;95248.22;5086607;28;20051;-64
2023/10/28 06:39:08;;;;;;;4.68;3.70;;;;;;;7.09;100.00;95250.81;5088018;28;20389;-64
2023/10/28 06:41:34;;;;;;;4.18;3.50;;;;;;;7.05;100.00;95252.06;5085108;28;20036;-64
2023/10/28 06:44:05;;;;;;;4.88;3.30;;;;;;;7.01;100.00;95250.66;5086932;28;20095;-64
2023/10/28 06:46:31;;;;;;;8.52;3.92;;;;;;;7.01;100.00;95255.91;5088998;28;20020;-64
2023/10/28 06:48:57;;;;;;;4.13;3.78;;;;;;;7.00;100.00;95254.25;5084421;28;20020;-63
2023/10/28 06:51:22;;;;;;;6.00;4.97;;;;;;;7.01;100.00;95251.47;5083782;28;20484;-63
2023/10/28 06:53:48;;;;;;;8.50;4.20;;;;;;;6.96;100.00;95243.19;5093443;28;20028;-64
2023/10/28 06:56:14;;;;;;;8.57;5.75;;;;;;;6.97;100.00;95251.91;5083840;28;20024;-64
2023/10/28 06:58:39;;;;;;;7.78;6.20;;;;;;;6.97;100.00;95244.03;5085088;28;20047;-64
2023/10/28 07:01:05;;;;;;;7.60;6.00;;;;;;;6.96;100.00;95237.97;5085370;28;20358;-64
2023/10/28 07:03:30;;;;;;;6.60;6.00;;;;;;;6.91;100.00;95224.44;5067412;28;20035;-64
2023/10/28 07:05:56;;;;;;;6.68;6.07;;;;;;;6.87;100.00;95234.34;5079756;28;20024;-64
2023/10/28 07:08:21;;;;;;;7.72;6.97;;;;;;;6.92;100.00;95246.19;5084740;28;20051;-64
2023/10/28 07:10:48;;;;;;;8.30;5.80;;;;;;;6.90;100.00;95237.66;5087295;28;20035;-64
2023/10/28 07:13:13;;;;;;;7.03;6.35;;;;;;;6.90;100.00;95237.66;5086527;28;20059;-63
2023/10/28 07:15:39;;;;;;;8.85;6.50;;;;;;;6.88;100.00;95228.16;5082022;28;20078;-64
2023/10/28 07:18:07;;;;;;;9.05;7.45;;;;;;;6.91;100.00;95229.69;5072962;28;20030;-64
2023/10/28 07:20:33;;;;;;;12.65;10.00;;;;;;;6.98;100.00;95215.09;5091852;28;20659;-64
2023/10/28 07:22:59;;;;;;;13.10;8.95;;;;;;;6.91;100.00;95202.66;5083391;28;20103;-63
2023/10/28 07:25:24;;;;;;;9.90;7.53;;;;;;;6.95;100.00;95204.91;5084072;28;20043;-64
2023/10/28 07:27:50;;;;;;;7.63;6.93;;;;;;;6.97;100.00;95205.59;5083940;28;20013;-63
2023/10/28 07:30:15;;;;;;;9.82;7.97;;;;;;;6.99;100.00;95210.72;5082028;28;20056;-63
2023/10/28 07:32:41;;;;;;;7.93;7.22;;;;;;;7.00;100.00;95202.72;5080302;28;20032;-64
2023/10/28 07:35:07;;;;;;;11.20;10.10;;;;;;;7.03;100.00;95207.69;5086948;28;20031;-64
2023/10/28 07:37:32;;;;;;;8.75;7.85;;;;;;;7.07;100.00;95205.63;5077192;28;20059;-64
2023/10/28 07:39:57;;;;;;;9.13;7.63;;;;;;;7.07;100.00;95205.63;5084934;28;20020;-64
2023/10/28 07:42:23;;;;;;;13.23;8.50;;;;;;;7.07;100.00;95213.50;5087688;28;20472;-63
2023/10/28 07:44:51;;;;;;;10.00;6.97;;;;;;;7.15;100.00;95213.66;5087896;28;20036;-64
2023/10/28 07:47:16;;;;;;;11.02;7.95;;;;;;;7.26;100.00;95217.94;5086170;28;20039;-63
2023/10/28 07:49:41;;;;;;;14.35;12.85;;;;;;;7.31;100.00;95222.81;5087065;28;20021;-64
2023/10/28 07:52:07;;;;;;;10.82;9.70;;;;;;;7.40;100.00;95218.56;5087184;28;20107;-64
2023/10/28 07:54:33;;;;;;;10.75;9.70;;;;;;;7.41;100.00;95239.38;5085109;28;20012;-65
2023/10/28 07:56:58;;;;;;;12.95;10.48;;;;;;;7.39;100.00;95238.66;5089509;28;20028;-64
2023/10/28 07:59:24;;;;;;;10.30;7.38;;;;;;;7.38;100.00;95234.38;5095251;28;20028;-65
2023/10/28 08:01:50;;;;;;;7.05;5.78;;;;;;;7.42;100.00;95234.97;5092538;28;20023;-65
2023/10/28 08:04:15;;;;;;;7.93;6.55;;;;;;;7.52;100.00;95227.13;5092006;28;20024;-65
2023/10/28 08:06:42;;;;;;;15.65;9.93;;;;;;;7.62;100.00;95227.97;5085919;28;20099;-64
2023/10/28 08:09:08;;;;;;;10.32;8.73;;;;;;;7.78;100.00;95214.34;5093886;28;20047;-64
2023/10/28 08:11:34;;;;;;;9.95;7.72;;;;;;;7.97;100.00;95221.41;5083474;28;20040;-65
2023/10/28 08:14:03;;;;;;;15.10;9.82;;;;;;;8.19;100.00;95216.84;5089744;28;20025;-64
2023/10/28 08:16:29;;;;;;;7.05;5.68;;;;;;;8.32;100.00;95208.69;5080275;28;20081;-65
2023/10/28 08:18:55;;;;;;;10.80;7.63;;;;;;;8.31;100.00;95201.78;5085443;28;20024;-65
2023/10/28 08:21:20;;;;;;;8.55;7.47;;;;;;;8.38;100.00;95199.44;5082018;28;20101;-64
2023/10/28 08:23:47;;;;;;;9.68;6.70;;;;;;;8.51;100.00;95201.78;5080538;28;20028;-64
2023/10/28 08:26:17;;;;;;;5.03;4.53;;;;;;;8.66;100.00;95205.63;5087148;28;20427;-65
2023/10/28 08:28:43;;;;;;;4.95;3.80;;;;;;;8.75;100.00;95224.94;5083305;28;20063;-64
2023/10/28 08:31:09;;;;;;;4.18;3.78;;;;;;;8.85;100.00;95230.19;5086388;28;20024;-65
2023/10/28 08:33:41;;;;;;;4.07;2.47;;;;;;;8.87;100.00;95231.66;5089323;28;20061;-65
2023/10/28 08:36:07;;;;;;;2.65;2.45;;;;;;;8.88;100.00;95225.44;5086688;28;20078;-65
2023/10/28 08:38:33;;;;;;;2.50;2.30;;;;;;;8.90;100.00;95243.69;5085146;28;20023;-65
2023/10/28 08:40:59;;;;;;;2.47;2.28;;;;;;;8.93;100.00;95295.06;5094118;28;20016;-65
2023/10/28 08:43:25;;;;;;;4.60;1.98;;;;;;;8.92;100.00;95299.50;5083254;28;20100;-64
2023/10/28 08:45:53;;;;;;;3.95;2.42;;;;;;;8.97;100.00;95309.59;5096893;28;20467;-65
2023/10/28 08:48:20;;;;;;;6.05;3.63;;;;;;;9.15;100.00;95315.75;5091360;28;20048;-65
2023/10/28 08:50:52;;;;;;;2.30;2.08;;;;;;;9.29;100.00;95318.91;5085549;28;20492;-64
2023/10/28 08:53:18;;;;;;;3.38;2.63;;;;;;;9.34;100.00;95319.28;5091786;28;20060;-64
2023/10/28 08:55:48;;;;;;;2.67;2.10;;;;;;;9.41;100.00;95325.66;5086482;28;20016;-64
2023/10/28 08:58:16;;;;;;;3.60;2.17;;;;;;;9.52;100.00;95306.25;5086073;28;20098;-64
2023/10/28 09:00:43;;;;;;;2.03;1.92;;;;;;;9.66;100.00;95298.84;5084080;28;20481;-64
2023/10/28 09:03:10;;;;;;;3.03;2.25;;;;;;;9.81;100.00;95286.03;5091314;28;20026;-65
2023/10/28 09:05:35;;;;;;;2.72;2.30;;;;;;;9.96;100.00;95276.66;5087587;28;20020;-63
2023/10/28 09:08:00;;;;;;;3.72;2.10;;;;;;;10.08;100.00;95269.41;5088695;28;20491;-65
2023/10/28 09:10:27;;;;;;;3.10;1.80;;;;;;;10.16;100.00;95266.03;5081925;28;20024;-64
2023/10/28 09:12:52;;;;;;;2.22;1.60;;;;;;;10.25;100.00;95256.41;5095947;28;20388;-64
2023/10/28 09:15:18;;;;;;;2.50;2.30;;;;;;;10.28;100.00;95233.25;5086850;28;20032;-64
2023/10/28 09:17:44;;;;;;;4.35;2.28;;;;;;;10.41;100.00;95235.53;5092975;28;20396;-64
2023/10/28 09:20:09;;;;;;;3.15;2.38;;;;;;;10.54;100.00;95219.34;5088633;28;20024;-64
2023/10/28 09:22:42;;;;;;;3.83;2.80;;;;;;;10.68;100.00;95222.38;5093176;28;20024;-64
2023/10/28 09:25:10;;;;;;;3.58;3.03;;;;;;;10.81;100.00;95227.25;5086322;28;20487;-65
2023/10/28 09:27:35;;;;;;;4.50;2.88;;;;;;;10.88;100.00;95229.09;5081773;28;20504;-65
2023/10/28 09:30:10;;;;;;;4.85;2.72;;;;;;;10.95;100.00;95237.22;5085880;28;20050;-64
2023/10/28 09:32:35;;;;;;;3.20;2.30;;;;;;;11.04;100.00;95228.38;5089799;28;20374;-64
2023/10/28 09:35:06;;;;;;;2.95;2.00;;;;;;;11.20;100.00;95215.47;5087664;28;20031;-64
2023/10/28 09:37:36;;;;;;;2.97;2.15;;;;;;;11.33;100.00;95202.66;5078993;28;20025;-65
2023/10/28 09:40:10;;;;;;;2.10;1.98;;;;;;;11.50;100.00;95192.19;5087297;28;20032;-64
2023/10/28 09:42:37;;;;;;;2.95;2.25;;;;;;;11.61;100.00;95202.44;5079129;28;20033;-64
2023/10/28 09:45:05;;;;;;;2.90;2.17;;;;;;;11.67;100.00;95193.88;5089021;28;20040;-64
2023/10/28 09:47:55;;;;;;;6.13;2.90;;;;;;;11.80;100.00;95150.38;5083119;28;20024;-65
2023/10/28 09:50:22;;;;;;;5.38;2.38;;;;;;;11.68;100.00;95147.22;5085023;28;20037;-64
2023/10/28 09:52:51;;;;;;;3.47;2.10;;;;;;;11.76;100.00;95155.19;5089490;28;20031;-64
2023/10/28 09:55:22;;;;;;;2.58;2.40;;;;;;;11.90;100.00;95140.53;5083327;28;20440;-64
2023/10/28 09:57:55;;;;;;;2.90;2.03;;;;;;;11.82;100.00;95129.94;5089345;28;20027;-64
2023/10/28 10:00:25;;;;;;;3.63;2.00;;;;;;;11.85;100.00;95148.91;5082961;28;20070;-64
2023/10/28 10:03:05;;;;;;;1.50;1.40;;;;;;;11.79;100.00;95132.91;5089730;28;20023;-64
2023/10/28 10:05:40;;;;;;;2.25;1.80;;;;;;;11.87;100.00;95125.03;5082841;28;20035;-64
2023/10/28 10:08:16;;;;;;;2.13;1.98;;;;;;;11.99;100.00;95139.53;5084834;28;20031;-64
2023/10/28 10:10:45;;;;;;;3.00;2.10;;;;;;;12.05;100.00;95135.44;5081537;28;20024;-63
2023/10/28 10:13:11;;;;;;;4.10;2.30;;;;;;;12.21;100.00;95133.78;5082228;28;20114;-63
2023/10/28 10:15:42;;;;;;;2.58;2.38;;;;;;;12.29;100.00;95152.25;5084232;28;20028;-64
2023/10/28 10:18:11;;;;;;;4.93;2.60;;;;;;;12.35;100.00;95127.81;5085089;28;20399;-64
2023/10/28 10:20:41;;;;;;;11.20;4.63;;;;;;;12.52;100.00;95135.72;5084160;28;20043;-64
2023/10/28 10:23:09;;;;;;;4.35;2.67;;;;;;;12.49;100.00;95112.31;5086701;28;20610;-64
2023/10/28 10:25:45;;;;;;;4.25;2.30;;;;;;;12.56;100.00;95114.13;5085829;28;20034;-64
2023/10/28 10:28:12;;;;;;;3.38;2.58;;;;;;;12.55;100.00;95101.06;5083673;28;20031;-64
2023/10/28 10:30:38;;;;;;;2.60;2.40;;;;;;;12.76;100.00;95108.47;5087510;28;20041;-65
2023/10/28 10:33:03;;;;;;;2.70;2.15;;;;;;;12.83;100.00;95108.59;5095782;28;20035;-64
2023/10/28 10:35:31;;;;;;;2.03;1.92;;;;;;;13.08;100.00;95119.09;5080316;28;20032;-65
2023/10/28 10:38:09;;;;;;;3.30;1.92;;;;;;;13.31;100.00;95071.53;5083690;28;20102;-64
2023/10/28 10:40:48;;;;;;;2.80;1.60;;;;;;;13.37;100.00;95062.09;5083712;28;20028;-66
2023/10/28 10:43:20;;;;;;;3.08;1.83;;;;;;;13.50;100.00;95032.47;5087042;28;20399;-65
2023/10/28 10:45:47;;;;;;;3.08;2.15;;;;;;;13.61;100.00;95034.72;5083854;28;20070;-65
2023/10/28 10:48:13;;;;;;;2.00;1.73;;;;;;;13.52;100.00;95027.81;5088732;28;20060;-66
2023/10/28 10:50:40;;;;;;;2.45;1.95;;;;;;;13.42;100.00;95005.06;5081917;28;20606;-65
2023/10/28 10:53:06;;;;;;;3.92;2.20;;;;;;;13.27;100.00;95006.81;5080126;28;20549;-65
2023/10/28 10:55:32;;;;;;;2.58;1.80;;;;;;;13.32;100.00;95005.28;5083692;28;20099;-66
2023/10/28 10:57:58;;;;;;;2.85;1.90;;;;;;;13.37;100.00;95007.38;5080216;28;20035;-65
2023/10/28 11:00:25;;;;;;;2.97;1.77;;;;;;;13.35;100.00;94993.53;5083717;28;20039;-64
2023/10/28 11:02:53;;;;;;;2.05;1.92;;;;;;;13.32;100.00;94994.72;5084478;28;20078;-65
2023/10/28 11:05:18;;;;;;;10.00;8.57;;;;;;;13.31;100.00;94994.88;5081791;28;20028;-64
2023/10/28 11:07:45;;;;;;;4.78;3.83;;;;;;;13.37;100.00;95004.75;5082684;28;20025;-65
2023/10/28 11:10:11;;;;;;;4.50;3.15;;;;;;;13.52;100.00;95004.84;5083711;28;20131;-65
2023/10/28 11:12:37;;;;;;;6.75;3.05;;;;;;;13.62;100.00;95009.91;5089479;28;20529;-65
2023/10/28 11:15:03;;;;;;;6.30;3.50;;;;;;;13.51;100.00;95005.84;5082174;28;20485;-65
2023/10/28 11:17:29;;;;;;;3.85;2.63;;;;;;;13.45;100.00;95001.25;5087233;28;20101;-64
2023/10/28 11:19:58;;;;;;;2.55;1.90;;;;;;;13.41;100.00;94992.00;5068878;28;20064;-64
2023/10/28 11:22:23;;;;;;;4.50;2.92;;;;;;;13.41;100.00;94981.44;5073231;28;20458;-65
2023/10/28 11:24:59;;;;;;;2.17;1.98;;;;;;;13.33;100.00;94969.94;5075199;28;20111;-64
2023/10/28 11:27:26;;;;;;;3.03;2.72;;;;;;;13.26;100.00;94969.00;5073543;28;20016;-64
2023/10/28 11:29:56;;;;;;;3.33;2.67;;;;;;;13.18;100.00;94961.94;5076023;28;20036;-65